RYR4XC EGSS-EHEH
Flight info
| Callsign | RYR4XC |
|---|---|
| Flight time | 0h 50m |
| Altitude | 19000 |
| Route | CLN P44 RATLO M197 REDFA |
| Aircraft | B738/M-SDE3FGILRWY/SB1 |
Departure
| Time | 2026-05-04 16:12 |
|---|---|
| Airport | London Stansted Airport (EGSS) |
Arrival
| Time | 2026-05-04 17:02 |
|---|---|
| Airport | Eindhoven Airport (EHEH) |
| Time | Latitude | Longitude | Altitude | Speed | Heading |
|---|---|---|---|---|---|
| 2026-05-04 15:42 | 51.89131 | 0.25522 | 352 ft | 0 kts | 54° |
| 2026-05-04 15:56 | 51.89125 | 0.25509 | 355 ft | 2 kts | 48° |
| 2026-05-04 15:56 | 51.89113 | 0.25490 | 353 ft | 2 kts | 35° |
| 2026-05-04 15:56 | 51.89098 | 0.25479 | 351 ft | 2 kts | 350° |
| 2026-05-04 15:57 | 51.89084 | 0.25490 | 351 ft | 1 kts | 311° |
| 2026-05-04 15:57 | 51.89083 | 0.25493 | 350 ft | 0 kts | 309° |
| 2026-05-04 16:07 | 51.89095 | 0.25468 | 350 ft | 10 kts | 309° |
| 2026-05-04 16:08 | 51.89149 | 0.25374 | 351 ft | 12 kts | 315° |
| 2026-05-04 16:08 | 51.89314 | 0.25236 | 343 ft | 11 kts | 40° |
| 2026-05-04 16:09 | 51.89399 | 0.25185 | 346 ft | 6 kts | 313° |
| 2026-05-04 16:09 | 51.89411 | 0.25164 | 346 ft | 0 kts | 313° |
| 2026-05-04 16:10 | 51.89479 | 0.25042 | 339 ft | 13 kts | 303° |
| 2026-05-04 16:11 | 51.88772 | 0.23880 | 336 ft | 156 kts | 223° |
| 2026-05-04 16:11 | 51.87846 | 0.22472 | 840 ft | 198 kts | 224° |
| 2026-05-04 16:12 | 51.84244 | 0.18663 | 4217 ft | 220 kts | 190° |
| 2026-05-04 16:12 | 51.81261 | 0.22635 | 6795 ft | 239 kts | 92° |
| 2026-05-04 16:13 | 51.81202 | 0.28388 | 6742 ft | 285 kts | 102° |
| 2026-05-04 16:13 | 51.81613 | 0.34808 | 6832 ft | 280 kts | 84° |
| 2026-05-04 16:14 | 51.81908 | 0.41106 | 7321 ft | 285 kts | 87° |
| 2026-05-04 16:14 | 51.82149 | 0.47607 | 7587 ft | 297 kts | 87° |
| 2026-05-04 16:15 | 51.82538 | 0.57386 | 8229 ft | 284 kts | 86° |
| 2026-05-04 16:16 | 51.82802 | 0.63837 | 8750 ft | 293 kts | 86° |
| 2026-05-04 16:16 | 51.83210 | 0.73840 | 9567 ft | 300 kts | 86° |
| 2026-05-04 16:17 | 51.83477 | 0.80484 | 10234 ft | 295 kts | 86° |
| 2026-05-04 16:18 | 51.83907 | 0.91387 | 11437 ft | 352 kts | 86° |
| 2026-05-04 16:18 | 51.84064 | 0.95415 | 11832 ft | 365 kts | 87° |
| 2026-05-04 16:19 | 51.84540 | 1.07809 | 12964 ft | 371 kts | 87° |
| 2026-05-04 16:19 | 51.85085 | 1.16145 | 13729 ft | 375 kts | 71° |
| 2026-05-04 16:20 | 51.88279 | 1.27867 | 14866 ft | 382 kts | 66° |
| 2026-05-04 16:20 | 51.90448 | 1.35771 | 15597 ft | 385 kts | 67° |
| 2026-05-04 16:21 | 51.93671 | 1.47776 | 16742 ft | 390 kts | 67° |
| 2026-05-04 16:22 | 51.95827 | 1.55866 | 17532 ft | 393 kts | 67° |
| 2026-05-04 16:22 | 51.99081 | 1.68204 | 18694 ft | 399 kts | 70° |
| 2026-05-04 16:23 | 52.01270 | 1.81486 | 18997 ft | 408 kts | 77° |
| 2026-05-04 16:24 | 52.03888 | 1.98827 | 18990 ft | 370 kts | 77° |
| 2026-05-04 16:25 | 52.05098 | 2.06674 | 18989 ft | 353 kts | 77° |
| 2026-05-04 16:26 | 52.07498 | 2.22347 | 19011 ft | 359 kts | 77° |
| 2026-05-04 16:26 | 52.09320 | 2.34330 | 18991 ft | 359 kts | 77° |
| 2026-05-04 16:27 | 52.10513 | 2.42223 | 19002 ft | 357 kts | 77° |
| 2026-05-04 16:28 | 52.10523 | 2.52695 | 19008 ft | 348 kts | 114° |
| 2026-05-04 16:28 | 52.07501 | 2.63428 | 19000 ft | 349 kts | 117° |
| 2026-05-04 16:29 | 52.03385 | 2.77807 | 18997 ft | 350 kts | 117° |
| 2026-05-04 16:30 | 52.00319 | 2.88645 | 18995 ft | 351 kts | 117° |
| 2026-05-04 16:31 | 51.98418 | 2.95354 | 18995 ft | 351 kts | 117° |
| 2026-05-04 16:31 | 51.95352 | 3.06140 | 18999 ft | 351 kts | 117° |
| 2026-05-04 16:32 | 51.92280 | 3.16902 | 19004 ft | 351 kts | 117° |
| 2026-05-04 16:33 | 51.90216 | 3.24103 | 19007 ft | 351 kts | 117° |
| 2026-05-04 16:33 | 51.88159 | 3.31256 | 19009 ft | 351 kts | 117° |
| 2026-05-04 16:34 | 51.86096 | 3.38413 | 19003 ft | 351 kts | 117° |
| 2026-05-04 16:34 | 51.85061 | 3.41992 | 19002 ft | 351 kts | 117° |
| 2026-05-04 16:35 | 51.81944 | 3.52745 | 19000 ft | 351 kts | 117° |
| 2026-05-04 16:35 | 51.78830 | 3.63440 | 18999 ft | 350 kts | 118° |
| 2026-05-04 16:36 | 51.77792 | 3.66996 | 18995 ft | 351 kts | 118° |
| 2026-05-04 16:36 | 51.75674 | 3.74236 | 18991 ft | 350 kts | 118° |
| 2026-05-04 16:37 | 51.73598 | 3.81311 | 18991 ft | 350 kts | 118° |
| 2026-05-04 16:37 | 51.72551 | 3.84868 | 18989 ft | 350 kts | 118° |
| 2026-05-04 16:37 | 51.70513 | 3.91758 | 18974 ft | 332 kts | 118° |
| 2026-05-04 16:38 | 51.68528 | 3.98423 | 18982 ft | 330 kts | 118° |
| 2026-05-04 16:39 | 51.65533 | 4.08448 | 18219 ft | 330 kts | 118° |
| 2026-05-04 16:39 | 51.63556 | 4.15052 | 17520 ft | 325 kts | 118° |
| 2026-05-04 16:40 | 51.61601 | 4.21565 | 16865 ft | 321 kts | 118° |
| 2026-05-04 16:40 | 51.59666 | 4.27995 | 16216 ft | 317 kts | 118° |
| 2026-05-04 16:41 | 51.57751 | 4.34343 | 15577 ft | 314 kts | 118° |
| 2026-05-04 16:41 | 51.54896 | 4.43779 | 14626 ft | 310 kts | 118° |
| 2026-05-04 16:42 | 51.52562 | 4.53291 | 13648 ft | 311 kts | 90° |
| 2026-05-04 16:43 | 51.54194 | 4.59717 | 13008 ft | 308 kts | 54° |
| 2026-05-04 16:43 | 51.56713 | 4.65269 | 12369 ft | 306 kts | 53° |
| 2026-05-04 16:43 | 51.57973 | 4.68040 | 12070 ft | 308 kts | 54° |
| 2026-05-04 16:44 | 51.62908 | 4.79080 | 11030 ft | 301 kts | 54° |
| 2026-05-04 16:45 | 51.65318 | 4.84522 | 10553 ft | 300 kts | 54° |
| 2026-05-04 16:46 | 51.68248 | 4.93202 | 9793 ft | 294 kts | 90° |
| 2026-05-04 16:46 | 51.67138 | 4.99310 | 9304 ft | 283 kts | 117° |
| 2026-05-04 16:47 | 51.65485 | 5.05000 | 8774 ft | 279 kts | 117° |
| 2026-05-04 16:47 | 51.64131 | 5.09729 | 8345 ft | 276 kts | 117° |
| 2026-05-04 16:48 | 51.60512 | 5.16556 | 7568 ft | 262 kts | 137° |
| 2026-05-04 16:48 | 51.59256 | 5.18625 | 7282 ft | 256 kts | 137° |
| 2026-05-04 16:49 | 51.56834 | 5.22655 | 6681 ft | 246 kts | 136° |
| 2026-05-04 16:49 | 51.54530 | 5.26543 | 6168 ft | 234 kts | 135° |
| 2026-05-04 16:50 | 51.52387 | 5.30503 | 5666 ft | 239 kts | 134° |
| 2026-05-04 16:50 | 51.50187 | 5.34612 | 5178 ft | 246 kts | 133° |
| 2026-05-04 16:51 | 51.47945 | 5.38793 | 4682 ft | 246 kts | 131° |
| 2026-05-04 16:51 | 51.47197 | 5.41247 | 4406 ft | 250 kts | 103° |
| 2026-05-04 16:51 | 51.46837 | 5.46745 | 3905 ft | 247 kts | 91° |
| 2026-05-04 16:52 | 51.47148 | 5.52196 | 3389 ft | 245 kts | 75° |
| 2026-05-04 16:52 | 51.48035 | 5.54483 | 3127 ft | 243 kts | 42° |
| 2026-05-04 16:53 | 51.50647 | 5.57865 | 2652 ft | 242 kts | 37° |
| 2026-05-04 16:53 | 51.54571 | 5.62674 | 2033 ft | 224 kts | 37° |
| 2026-05-04 16:54 | 51.55788 | 5.64154 | 2000 ft | 216 kts | 37° |
| 2026-05-04 16:55 | 51.60669 | 5.69999 | 1998 ft | 220 kts | 25° |
| 2026-05-04 16:55 | 51.63219 | 5.68887 | 2000 ft | 200 kts | 292° |
| 2026-05-04 16:56 | 51.63494 | 5.64658 | 1994 ft | 181 kts | 254° |
| 2026-05-04 16:56 | 51.61412 | 5.60046 | 2009 ft | 174 kts | 226° |
| 2026-05-04 16:57 | 51.60577 | 5.58628 | 2020 ft | 176 kts | 226° |
| 2026-05-04 16:57 | 51.58880 | 5.55761 | 1998 ft | 176 kts | 226° |
| 2026-05-04 16:58 | 51.56383 | 5.51558 | 1990 ft | 170 kts | 226° |
| 2026-05-04 16:58 | 51.55560 | 5.50175 | 2001 ft | 169 kts | 226° |
| 2026-05-04 16:59 | 51.53985 | 5.47639 | 1990 ft | 153 kts | 220° |
| 2026-05-04 17:00 | 51.50680 | 5.43808 | 1240 ft | 136 kts | 217° |
| 2026-05-04 17:00 | 51.48310 | 5.41152 | 691 ft | 147 kts | 215° |
| 2026-05-04 17:01 | 51.46611 | 5.39246 | 314 ft | 150 kts | 216° |
| 2026-05-04 17:01 | 51.44969 | 5.37402 | 69 ft | 122 kts | 214° |
| 2026-05-04 17:02 | 51.44124 | 5.36436 | 82 ft | 17 kts | 245° |
| 2026-05-04 17:02 | 51.44219 | 5.36275 | 81 ft | 6 kts | 28° |
| 2026-05-04 17:03 | 51.44251 | 5.36315 | 83 ft | 6 kts | 39° |
| 2026-05-04 17:03 | 51.44270 | 5.36338 | 83 ft | 0 kts | 36° |
| 2026-05-04 17:05 | 51.44353 | 5.36431 | 81 ft | 11 kts | 34° |
| 2026-05-04 17:05 | 51.44509 | 5.36604 | 75 ft | 15 kts | 33° |
| 2026-05-04 17:06 | 51.44662 | 5.36777 | 83 ft | 11 kts | 35° |
| 2026-05-04 17:06 | 51.44724 | 5.36846 | 84 ft | 11 kts | 34° |
| 2026-05-04 17:07 | 51.44843 | 5.36980 | 86 ft | 10 kts | 35° |
| 2026-05-04 17:07 | 51.44896 | 5.37040 | 83 ft | 19 kts | 35° |
| 2026-05-04 17:07 | 51.45038 | 5.37199 | 84 ft | 18 kts | 34° |
| 2026-05-04 17:07 | 51.45141 | 5.37313 | 76 ft | 18 kts | 35° |
| 2026-05-04 17:08 | 51.45239 | 5.37424 | 72 ft | 17 kts | 35° |
| 2026-05-04 17:08 | 51.45427 | 5.37637 | 84 ft | 17 kts | 35° |
| 2026-05-04 17:08 | 51.45523 | 5.37744 | 81 ft | 17 kts | 34° |
| 2026-05-04 17:09 | 51.45618 | 5.37846 | 82 ft | 16 kts | 34° |
| 2026-05-04 17:09 | 51.45706 | 5.37943 | 70 ft | 15 kts | 34° |
| 2026-05-04 17:09 | 51.45792 | 5.38037 | 72 ft | 15 kts | 34° |
| 2026-05-04 17:10 | 51.45951 | 5.38221 | 77 ft | 12 kts | 34° |
| 2026-05-04 17:10 | 51.45982 | 5.38356 | 71 ft | 0 kts | 125° |
| 2026-05-04 17:12 | 51.45982 | 5.38358 | 69 ft | 1 kts | 125° |
| 2026-05-04 17:12 | 51.45903 | 5.38534 | 67 ft | 11 kts | 126° |
| 2026-05-04 17:13 | 51.45785 | 5.38778 | 69 ft | 8 kts | 150° |
| 2026-05-04 17:14 | 51.45717 | 5.38901 | 74 ft | 0 kts | 123° |